Airfield :
LOGIN :

Register | Disclaimer

   EN    FR    IT 

 










Legend :    VFR   Marginal VFR   IFR   Intensive IFR   Very Intensive IFR
Visi :
Ceiling :
>= 8 km
>= 3000ft
5 to 8 km
1000 to 3000 ft
1500m to 5 km
500 to 1000 ft
800 to 1500m
200 to 500 ft
< 800m
< 200 ft
Symbols :   Thunderstorms  Fog  Heavy snow  Heavy precipitations  Wind > 20 kt
SIGMETs :     Misc.  Thunderstorms  Icing  Turbulence  Mountain Waves  Volcanic Ashes







- Airport Elevation : 52 ft
- IATA code : RNN


EKRN - Bornholm Ronne

CURRENT METAR :
  • 201420Z AUTO 24010KT 9999NDV SCT007/// SCT018/// SCT034/// BKN120/// 14/12 Q1016

EXPIRED METARs :
  • 201350Z AUTO 23008KT 190V270 9999NDV BKN008/// BKN022/// 15/12 Q1016
  • 201320Z AUTO 24010KT 190V260 9999NDV BKN009/// 15/13 Q1016
  • 201250Z AUTO 24013KT 9999NDV OVC008/// 15/12 Q1016
  • 201220Z AUTO 23008KT 200V270 9999NDV BKN007/// BKN028/// BKN055/// 14/12 Q1016
  • 201150Z AUTO 24011KT 9999NDV BKN009/// 14/12 Q1016

TAF TAF EKRN
Valid from the 20 at 15:00 until the 20 at 21:00 UTC


201352Z 2015/2021 25010KT 9999 BKN025
TEMPO 2015/2018 BKN008
PROB40 2018/2021 4000 BR BKN008
No reported NOTAMs for that airfield.



MET'MAP, your aeronautical weather chart ! - Copyright ORBIFLY December 2007 - Disclaimer

ORBIFLY MET'MAP TEAM :

Programming & Development : Alexandra Zaïnal
Concept & Development : Baudouin d'Aumeries
Co-Development & Prog : Marc-Olivier Méhu
Technical & hardware support : Manuel Goepfert

Contact : metmap@orbifly.com




SOURCES & CREDITS :

   NOAA